Terminal Aerodrome Forecast
Issued by NWS

Home | Current Version | Previous Version | Text Only | Print | Product List | Glossary On
Versions: 1 2 3 4 5 6 7 8 9 10 11 12 13 14 15 16 17 18 19 20 21 22 23 24 25 26 27 28
000
FTUS43 KGLD 121121
TAFMCK
TAF
KMCK 121121Z 1212/1312 32008KT P6SM SCT250
     FM121500 03008KT 5SM BR BKN010
     FM121800 05005KT P6SM BKN015
     FM122100 09008KT P6SM BKN025
     FM130000 11005KT 5SM BR OVC007
     FM130300 12008KT 2SM -FZDZ BR OVC004=

USA.gov is the U.S. government's official web portal to all federal, state and local government web resources and services.